createdAt,value
2024-04-16T00:00:53.076Z,49.26
2024-04-16T00:03:38.837Z,49.86
2024-04-16T00:06:26.036Z,49.11
2024-04-16T00:09:11.249Z,49.28
2024-04-16T00:12:01.298Z,50.15
2024-04-16T00:14:52.067Z,49.87
2024-04-16T00:17:37.432Z,50.82
2024-04-16T00:20:22.987Z,52.01
2024-04-16T00:23:08.565Z,52.88
2024-04-16T00:25:54.255Z,53.08
2024-04-16T00:28:41.131Z,53.31
2024-04-16T00:31:26.554Z,53.51
2024-04-16T00:34:13.398Z,52.62
2024-04-16T00:37:01.240Z,51.96
2024-04-16T00:39:48.076Z,52.56
2024-04-16T00:42:34.042Z,51.90
2024-04-16T00:45:21.912Z,52.41
2024-04-16T00:48:07.963Z,52.16
2024-04-16T00:50:53.324Z,52.65
2024-04-16T00:53:38.607Z,53.26
2024-04-16T00:56:26.775Z,53.84
2024-04-16T00:59:12.579Z,53.81
2024-04-16T01:02:01.633Z,52.75
2024-04-16T01:04:50.512Z,53.61
2024-04-16T01:07:38.540Z,52.97
2024-04-16T01:10:24.355Z,53.53
2024-04-16T01:13:11.790Z,52.91
2024-04-16T01:15:57.488Z,52.29
2024-04-16T01:18:43.472Z,52.81
2024-04-16T01:21:29.083Z,52.87
2024-04-16T01:24:14.641Z,53.65
2024-04-16T01:27:04.315Z,54.28
2024-04-16T01:30:04.680Z,54.43
2024-04-16T01:33:00.682Z,54.57
2024-04-16T01:35:45.945Z,55.21
2024-04-16T01:38:35.461Z,54.88
2024-04-16T01:41:22.993Z,54.86
2024-04-16T01:44:08.885Z,55.98
2024-04-16T01:46:54.041Z,57.19
2024-04-16T01:49:40.283Z,58.06
2024-04-16T01:52:25.684Z,60.60
2024-04-16T01:55:11.823Z,62.87
2024-04-16T01:57:58.978Z,61.66
2024-04-16T02:00:46.354Z,62.37
2024-04-16T02:03:37.695Z,63.82
2024-04-16T02:06:23.486Z,61.84
2024-04-16T02:09:09.860Z,62.70
2024-04-16T02:11:58.096Z,62.89
2024-04-16T02:14:43.595Z,61.45
2024-04-16T02:17:39.561Z,59.26
2024-04-16T02:20:25.234Z,59.85
2024-04-16T02:23:13.846Z,60.01
2024-04-16T02:25:59.023Z,61.04
2024-04-16T02:28:44.519Z,61.59
2024-04-16T02:31:31.311Z,62.72
2024-04-16T02:34:16.835Z,62.84
2024-04-16T02:37:02.758Z,65.08
2024-04-16T02:39:48.216Z,64.28
2024-04-16T02:42:33.833Z,62.33
2024-04-16T02:45:20.406Z,60.99
2024-04-16T02:48:06.291Z,61.43
2024-04-16T02:50:51.605Z,59.57
2024-04-16T02:53:36.981Z,59.91
2024-04-16T02:56:24.023Z,58.89
2024-04-16T02:59:11.019Z,57.44
2024-04-16T03:01:56.726Z,57.31
2024-04-16T03:04:45.419Z,56.99
2024-04-16T03:07:30.792Z,56.49
2024-04-16T03:10:16.315Z,55.97
2024-04-16T03:13:01.569Z,56.50
2024-04-16T03:15:47.097Z,56.39
2024-04-16T03:18:32.662Z,55.16
2024-04-16T03:21:17.852Z,55.65
2024-04-16T03:24:03.011Z,55.74
2024-04-16T03:26:48.550Z,52.97
2024-04-16T03:29:34.091Z,51.25
2024-04-16T03:32:19.492Z,56.22
2024-04-16T03:35:05.100Z,54.31
2024-04-16T03:37:50.423Z,58.09
2024-04-16T03:40:37.421Z,56.76
2024-04-16T03:43:22.999Z,59.33
2024-04-16T03:46:14.435Z,61.29
2024-04-16T03:48:59.985Z,60.52
2024-04-16T03:51:45.679Z,63.18
2024-04-16T03:54:31.292Z,59.57
2024-04-16T03:57:16.615Z,60.82
2024-04-16T04:00:01.807Z,58.91
2024-04-16T04:02:49.751Z,59.04
2024-04-16T04:05:35.445Z,58.01
2024-04-16T04:08:28.092Z,59.05
2024-04-16T04:11:19.098Z,61.51
2024-04-16T04:14:03.971Z,59.26
2024-04-16T04:16:49.487Z,58.29
2024-04-16T04:19:35.245Z,58.62
2024-04-16T04:22:24.282Z,62.00
2024-04-16T04:25:10.650Z,64.34
2024-04-16T04:27:56.352Z,65.46
2024-04-16T04:30:42.227Z,62.05
2024-04-16T04:33:27.674Z,61.73
2024-04-16T04:36:12.872Z,60.61
2024-04-16T04:38:58.179Z,59.04
2024-04-16T04:41:43.459Z,57.88
2024-04-16T04:44:30.151Z,57.00
2024-04-16T04:47:15.594Z,55.61
2024-04-16T04:50:03.982Z,56.14
2024-04-16T04:52:54.424Z,58.28
2024-04-16T04:55:39.832Z,55.53
2024-04-16T04:58:26.311Z,56.21
2024-04-16T05:01:12.356Z,54.41
2024-04-16T05:04:02.578Z,53.59
2024-04-16T05:06:49.213Z,54.09
2024-04-16T05:09:34.737Z,52.40
2024-04-16T05:12:24.452Z,52.36
2024-04-16T05:15:14.768Z,51.59
2024-04-16T05:18:07.845Z,53.63
2024-04-16T05:20:53.228Z,54.43
2024-04-16T05:23:44.263Z,53.15
2024-04-16T05:26:31.719Z,52.62
2024-04-16T05:29:17.389Z,55.71
2024-04-16T05:32:05.205Z,49.81
2024-04-16T05:34:50.459Z,50.16
2024-04-16T05:37:35.680Z,51.11
2024-04-16T05:40:20.930Z,50.51
2024-04-16T05:43:05.972Z,48.24
2024-04-16T05:45:51.160Z,49.15
2024-04-16T05:48:36.455Z,49.01
2024-04-16T05:51:21.701Z,51.12
2024-04-16T05:54:07.101Z,50.74
2024-04-16T05:56:52.353Z,49.47
2024-04-16T05:59:38.108Z,49.54
2024-04-16T06:02:23.401Z,50.49
2024-04-16T06:05:10.152Z,48.39
2024-04-16T06:07:55.664Z,49.14
2024-04-16T06:10:41.425Z,48.85
2024-04-16T06:13:36.536Z,47.18
2024-04-16T06:16:26.259Z,47.53
2024-04-16T06:19:15.664Z,46.29
2024-04-16T06:22:01.046Z,47.66
2024-04-16T06:24:47.235Z,47.68
2024-04-16T06:30:35.132Z,44.58
2024-04-16T06:33:20.322Z,45.84
2024-04-16T06:36:05.517Z,44.88
2024-04-16T06:42:06.653Z,45.29
2024-04-16T06:45:05.525Z,44.47
2024-04-16T06:57:13.683Z,43.15
2024-04-16T06:59:59.242Z,42.93
2024-04-16T07:02:44.480Z,44.86
2024-04-16T07:05:29.836Z,44.47
2024-04-16T07:08:14.957Z,43.81
2024-04-16T07:11:00.342Z,44.01
2024-04-16T07:13:45.624Z,41.41
2024-04-16T07:16:31.325Z,42.21
2024-04-16T07:19:16.528Z,45.04
2024-04-16T07:22:01.854Z,46.42
2024-04-16T07:24:47.707Z,46.04
2024-04-16T07:27:32.992Z,45.46
2024-04-16T07:30:18.534Z,46.85
2024-04-16T07:33:04.176Z,46.33
2024-04-16T07:35:50.549Z,47.59
2024-04-16T07:38:36.248Z,49.57
2024-04-16T07:41:21.721Z,46.70
2024-04-16T07:44:06.970Z,46.11
2024-04-16T07:46:54.216Z,45.92
2024-04-16T07:49:41.493Z,44.67
2024-04-16T07:52:27.020Z,45.71
2024-04-16T07:55:12.325Z,43.60
2024-04-16T07:57:57.526Z,44.11
2024-04-16T08:00:42.723Z,43.56
2024-04-16T08:03:27.931Z,44.02
2024-04-16T08:06:15.128Z,45.20
2024-04-16T08:09:07.974Z,44.81
2024-04-16T08:11:54.787Z,43.62
2024-04-16T08:14:43.254Z,43.66
2024-04-16T08:17:28.230Z,41.16
2024-04-16T08:20:15.844Z,42.31
2024-04-16T08:23:02.265Z,42.13
2024-04-16T08:28:46.495Z,40.15
2024-04-16T08:31:31.820Z,39.87
2024-04-16T08:34:19.126Z,41.27
2024-04-16T08:37:04.497Z,39.96
2024-04-16T08:39:49.660Z,41.42
2024-04-16T08:42:42.468Z,40.22
2024-04-16T08:45:27.674Z,39.03
2024-04-16T08:48:12.741Z,40.45
2024-04-16T08:50:58.172Z,41.80
2024-04-16T08:53:44.581Z,41.49
2024-04-16T08:56:30.167Z,41.53
2024-04-16T08:59:15.713Z,41.18
2024-04-16T09:02:01.265Z,40.29
2024-04-16T09:04:46.667Z,40.28
2024-04-16T09:07:31.719Z,39.49
2024-04-16T09:10:19.395Z,39.53
2024-04-16T09:13:04.928Z,38.76
2024-04-16T09:15:50.270Z,40.35
2024-04-16T09:18:39.736Z,39.57
2024-04-16T09:21:25.119Z,37.75
2024-04-16T09:24:10.303Z,38.45
2024-04-16T09:26:55.730Z,37.05
2024-04-16T09:29:40.796Z,39.07
2024-04-16T09:32:26.309Z,39.09
2024-04-16T09:35:11.906Z,38.22
2024-04-16T09:37:57.171Z,38.51
2024-04-16T09:40:42.529Z,36.90
2024-04-16T09:43:28.871Z,37.70
2024-04-16T09:46:14.314Z,37.49
2024-04-16T09:49:03.880Z,37.39
2024-04-16T09:51:49.095Z,37.44
2024-04-16T09:54:34.329Z,38.07
2024-04-16T09:57:21.031Z,37.39
2024-04-16T10:00:07.658Z,34.79
2024-04-16T10:03:04.625Z,34.29
2024-04-16T11:36:14.494Z,35.64
2024-04-16T11:39:01.982Z,37.17
2024-04-16T11:41:47.829Z,38.17
2024-04-16T11:44:43.666Z,37.40
2024-04-16T11:56:54.740Z,38.37
2024-04-16T12:12:32.039Z,31.68
2024-04-16T12:24:38.092Z,36.31
2024-04-16T12:27:23.789Z,36.19
2024-04-16T12:30:19.945Z,38.32
2024-04-16T12:33:15.508Z,41.76
2024-04-16T12:36:05.483Z,44.09
2024-04-16T12:38:50.480Z,44.17
2024-04-16T12:41:35.757Z,44.68
2024-04-16T12:44:31.478Z,42.91
2024-04-16T12:47:17.114Z,44.13
2024-04-16T12:50:06.000Z,44.17
2024-04-16T12:53:18.550Z,44.93
2024-04-16T12:56:11.290Z,44.33
2024-04-16T12:59:08.635Z,43.80
2024-04-16T13:02:13.617Z,43.14
2024-04-16T13:05:15.205Z,39.85
2024-04-16T13:23:17.972Z,43.14
2024-04-16T14:36:10.376Z,43.33
2024-04-16T14:39:06.043Z,42.84
2024-04-16T14:42:22.048Z,43.87
2024-04-16T14:51:34.195Z,42.63
2024-04-16T14:54:18.928Z,39.24
2024-04-16T15:37:52.509Z,39.08
2024-04-16T15:43:48.566Z,41.45
2024-04-16T15:46:38.404Z,41.41
2024-04-16T15:49:23.607Z,41.95
2024-04-16T15:52:12.343Z,41.14
2024-04-16T15:54:58.975Z,41.57
2024-04-16T15:57:44.331Z,40.56
2024-04-16T16:00:29.363Z,40.31
2024-04-16T16:03:24.570Z,39.27
2024-04-16T17:20:08.350Z,47.20
2024-04-16T17:22:53.568Z,45.68
2024-04-16T17:25:38.581Z,47.04
2024-04-16T17:28:24.302Z,47.72
2024-04-16T17:37:17.848Z,51.55
2024-04-16T17:43:04.389Z,50.43
2024-04-16T17:46:06.717Z,50.50
2024-04-16T18:13:59.558Z,48.26
2024-04-16T18:16:47.336Z,47.18
2024-04-16T18:19:45.205Z,49.08
2024-04-16T19:05:56.813Z,51.39
2024-04-16T19:08:42.476Z,50.08
2024-04-16T19:17:42.075Z,50.84
2024-04-16T19:20:32.540Z,52.32
2024-04-16T19:23:20.142Z,49.90
2024-04-16T19:26:14.828Z,50.66
2024-04-16T19:29:12.176Z,51.14
2024-04-16T19:31:57.864Z,56.39
2024-04-16T19:47:26.097Z,70.38
2024-04-16T19:56:25.241Z,66.84
2024-04-16T20:08:20.031Z,63.98
2024-04-16T20:17:23.232Z,68.88
2024-04-16T20:23:23.121Z,68.90
2024-04-16T20:26:08.696Z,67.72
2024-04-16T20:28:57.042Z,66.69
2024-04-16T20:31:46.691Z,66.58
2024-04-16T20:37:32.731Z,66.59
2024-04-16T20:49:28.309Z,69.57
2024-04-16T20:52:16.540Z,68.20
2024-04-16T20:55:05.511Z,66.02
2024-04-16T20:58:03.447Z,69.12
2024-04-16T21:00:58.172Z,67.35
2024-04-16T21:03:44.415Z,71.13
2024-04-16T21:06:30.270Z,71.19
2024-04-16T21:09:16.019Z,71.54
2024-04-16T21:12:01.284Z,71.33
2024-04-16T21:14:46.675Z,70.74
2024-04-16T21:17:32.036Z,69.68
2024-04-16T21:20:17.925Z,70.70
2024-04-16T21:26:02.457Z,71.82
2024-04-16T21:28:55.182Z,71.62
2024-04-16T21:31:44.507Z,71.31
2024-04-16T21:34:30.081Z,71.23
2024-04-16T21:37:18.978Z,72.42
2024-04-16T21:40:09.271Z,71.29
2024-04-16T21:43:02.828Z,72.61
2024-04-16T21:45:49.737Z,72.52
2024-04-16T21:48:38.486Z,74.37
2024-04-16T21:51:26.947Z,72.60
2024-04-16T21:54:20.036Z,72.44
2024-04-16T22:00:21.612Z,68.57
2024-04-16T22:03:22.137Z,68.84
2024-04-16T22:06:10.773Z,66.93
2024-04-16T22:08:56.279Z,66.63
2024-04-16T22:18:12.087Z,66.58
2024-04-16T22:21:04.673Z,67.11
2024-04-16T22:23:59.592Z,65.96
2024-04-16T22:26:49.165Z,64.46
2024-04-16T22:29:41.016Z,64.13
2024-04-16T22:35:26.038Z,65.66
2024-04-16T22:41:23.060Z,65.73
2024-04-16T22:47:28.052Z,64.17
2024-04-16T22:59:35.683Z,66.05
2024-04-16T23:02:58.942Z,67.48
2024-04-16T23:34:35.732Z,71.86
2024-04-16T23:36:43.327Z,72.30
2024-04-16T23:39:40.046Z,72.60
2024-04-16T23:48:37.462Z,70.31
2024-04-16T23:51:30.418Z,70.50
2024-04-16T23:57:26.105Z,68.85
